Terminal Aerodrome Forecast
Issued by NWS

Home | Current Version | Previous Version | Text Only | Print | Product List | Glossary On
Versions: 1 2 3 4 5 6 7 8 9 10 11 12 13 14 15 16 17 18 19 20 21 22 23 24 25 26 27 28 29 30 31 32 33
399
FTUS43 KDTX 091028 AAB
TAFYIP
TAF AMD
KYIP 091028Z 0910/1006 23010KT 2SM -SN BR OVC007
     FM091100 26010KT 1SM -SN OVC004
     FM091300 28012G20KT 6SM -SHSN OVC015
     FM100000 26012KT 4SM -SHSN OVC018=

USA.gov is the U.S. government's official web portal to all federal, state and local government web resources and services.